createdAt,value
2018-12-09T00:01:24.171Z,95352.28
2018-12-09T00:03:57.627Z,95340.28
2018-12-09T00:06:25.198Z,95350.45
2018-12-09T00:08:52.830Z,95339.70
2018-12-09T00:11:20.381Z,95336.84
2018-12-09T00:13:47.930Z,95333.73
2018-12-09T00:16:15.480Z,95350.59
2018-12-09T00:18:43.048Z,95343.44
2018-12-09T00:21:10.594Z,95324.02
2018-12-09T00:23:39.558Z,95338.08
2018-12-09T00:26:08.610Z,95322.39
2018-12-09T00:28:37.219Z,95329.78
2018-12-09T00:31:04.931Z,95325.34
2018-12-09T00:33:32.551Z,95331.75
2018-12-09T00:36:00.102Z,95338.93
2018-12-09T00:38:27.660Z,95338.64
2018-12-09T00:40:55.223Z,95317.04
2018-12-09T00:43:22.808Z,95298.33
2018-12-09T00:45:50.364Z,95298.36
2018-12-09T00:48:17.911Z,95321.66
2018-12-09T00:50:45.483Z,95305.51
2018-12-09T00:53:13.186Z,95310.75
2018-12-09T00:55:40.734Z,95301.84
2018-12-09T00:58:08.400Z,95311.91
2018-12-09T01:00:35.957Z,95313.64
2018-12-09T01:03:03.513Z,95300.59
2018-12-09T01:05:31.253Z,95282.92
2018-12-09T01:08:00.247Z,95284.80
2018-12-09T01:10:29.530Z,95268.71
2018-12-09T01:12:57.495Z,95275.53
2018-12-09T01:15:25.120Z,95280.71
2018-12-09T01:17:52.673Z,95282.12
2018-12-09T01:20:20.231Z,95275.80
2018-12-09T01:22:47.782Z,95276.30
2018-12-09T01:25:15.351Z,95273.48
2018-12-09T01:27:42.940Z,95300.31
2018-12-09T01:30:10.499Z,95290.81
2018-12-09T01:32:38.339Z,95298.98
2018-12-09T01:35:06.107Z,95308.42
2018-12-09T01:37:34.693Z,95289.72
2018-12-09T01:40:03.337Z,95298.95
2018-12-09T01:42:32.064Z,95288.38
2018-12-09T01:44:59.806Z,95280.45
2018-12-09T01:47:27.361Z,95277.65
2018-12-09T01:49:54.939Z,95275.09
2018-12-09T01:52:22.626Z,95265.05
2018-12-09T01:54:50.176Z,95261.30
2018-12-09T01:57:17.747Z,95255.63
2018-12-09T01:59:45.307Z,95266.59
2018-12-09T02:02:12.934Z,95277.08
2018-12-09T02:04:40.495Z,95267.81
2018-12-09T02:07:08.043Z,95252.50
2018-12-09T02:09:36.813Z,95261.77
2018-12-09T02:12:06.405Z,95246.91
2018-12-09T02:14:34.528Z,95262.25
2018-12-09T02:17:02.103Z,95266.80
2018-12-09T02:19:29.686Z,95269.00
2018-12-09T02:21:57.351Z,95260.84
2018-12-09T02:24:24.932Z,95253.59
2018-12-09T02:26:52.490Z,95249.31
2018-12-09T02:29:20.060Z,95278.81
2018-12-09T02:31:47.621Z,95248.67
2018-12-09T02:34:15.198Z,95243.78
2018-12-09T02:36:42.769Z,95235.18
2018-12-09T02:39:10.445Z,95234.17
2018-12-09T02:41:38.368Z,95251.06
2018-12-09T02:44:07.791Z,95261.17
2018-12-09T02:46:37.586Z,95236.41
2018-12-09T02:49:06.901Z,95236.27
2018-12-09T02:51:34.697Z,95240.02
2018-12-09T02:54:02.270Z,95248.42
2018-12-09T02:56:29.909Z,95238.92
2018-12-09T02:58:57.493Z,95248.00
2018-12-09T03:01:25.054Z,95239.15
2018-12-09T03:03:52.996Z,95235.26
2018-12-09T03:06:20.644Z,95246.22
2018-12-09T03:08:48.543Z,95242.83
2018-12-09T03:11:18.798Z,95249.09
2018-12-09T03:13:47.110Z,95230.70
2018-12-09T03:16:14.659Z,95240.45
2018-12-09T03:18:42.220Z,95224.54
2018-12-09T03:21:10.104Z,95233.50
2018-12-09T03:23:37.666Z,95243.19
2018-12-09T03:26:05.252Z,95261.54
2018-12-09T03:28:32.800Z,95321.71
2018-12-09T03:31:00.357Z,95287.61
2018-12-09T03:33:27.928Z,95293.52
2018-12-09T03:35:55.504Z,95298.55
2018-12-09T03:38:23.676Z,95276.03
2018-12-09T03:40:51.405Z,95295.69
2018-12-09T03:43:20.447Z,95285.70
2018-12-09T03:45:50.133Z,95293.13
2018-12-09T03:48:19.305Z,95276.77
2018-12-09T03:50:47.287Z,95281.94
2018-12-09T03:53:14.854Z,95293.95
2018-12-09T03:55:42.410Z,95273.00
2018-12-09T03:58:10.030Z,95270.99
2018-12-09T04:00:37.701Z,95274.84
2018-12-09T04:03:05.311Z,95278.43
2018-12-09T04:05:32.876Z,95282.51
2018-12-09T04:08:00.455Z,95279.73
2018-12-09T04:10:28.060Z,95281.31
2018-12-09T04:12:55.620Z,95284.59
2018-12-09T04:15:23.281Z,95277.95
2018-12-09T04:17:51.846Z,95274.86
2018-12-09T04:20:21.054Z,95286.89
2018-12-09T04:22:49.354Z,95281.28
2018-12-09T04:25:16.921Z,95285.36
2018-12-09T04:27:44.516Z,95285.08
2018-12-09T04:30:12.201Z,95282.52
2018-12-09T04:32:40.284Z,95292.67
2018-12-09T04:35:07.844Z,95284.45
2018-12-09T04:37:35.400Z,95278.52
2018-12-09T04:40:02.966Z,95288.66
2018-12-09T04:42:30.524Z,95277.36
2018-12-09T04:44:58.570Z,95270.91
2018-12-09T04:47:26.181Z,95280.54
2018-12-09T04:49:54.954Z,95274.15
2018-12-09T04:52:24.192Z,95284.86
2018-12-09T04:54:52.020Z,95280.21
2018-12-09T04:57:19.651Z,95277.59
2018-12-09T04:59:47.731Z,95289.32
2018-12-09T05:02:15.305Z,95289.88
2018-12-09T05:04:42.871Z,95301.41
2018-12-09T05:07:10.517Z,95288.81
2018-12-09T05:09:38.080Z,95296.20
2018-12-09T05:12:06.690Z,95304.99
2018-12-09T05:14:35.870Z,95308.34
2018-12-09T05:17:04.404Z,95285.61
2018-12-09T05:19:31.951Z,95295.33
2018-12-09T05:21:59.526Z,95321.94
2018-12-09T05:24:27.081Z,95315.63
2018-12-09T05:26:54.640Z,95312.36
2018-12-09T05:29:22.191Z,95312.14
2018-12-09T05:31:49.900Z,95327.79
2018-12-09T05:34:17.579Z,95327.33
2018-12-09T05:36:45.156Z,95329.20
2018-12-09T05:39:12.723Z,95324.83
2018-12-09T05:41:40.287Z,95336.38
2018-12-09T05:44:07.839Z,95344.30
2018-12-09T05:46:35.393Z,95347.36
2018-12-09T05:49:03.246Z,95337.42
2018-12-09T05:51:32.096Z,95333.86
2018-12-09T05:54:01.707Z,95335.68
2018-12-09T05:56:29.462Z,95327.53
2018-12-09T05:58:57.156Z,95348.45
2018-12-09T06:01:24.733Z,95336.23
2018-12-09T06:03:52.300Z,95343.16
2018-12-09T06:06:19.859Z,95356.42
2018-12-09T06:08:47.442Z,95333.38
2018-12-09T06:11:14.994Z,95336.72
2018-12-09T06:13:42.557Z,95343.11
2018-12-09T06:16:10.164Z,95329.84
2018-12-09T06:18:37.728Z,95340.08
2018-12-09T06:21:05.283Z,95346.70
2018-12-09T06:23:33.158Z,95337.75
2018-12-09T06:26:02.755Z,95343.91
2018-12-09T06:28:31.546Z,95354.09
2018-12-09T06:30:59.110Z,95351.24
2018-12-09T06:33:26.670Z,95352.75
2018-12-09T06:35:54.231Z,95350.44
2018-12-09T06:38:21.797Z,95372.36
2018-12-09T06:40:49.367Z,95362.91
2018-12-09T06:43:17.023Z,95358.22
2018-12-09T06:45:44.630Z,95375.56
2018-12-09T06:48:12.603Z,95377.63
2018-12-09T06:50:40.145Z,95375.88
2018-12-09T06:53:07.746Z,95370.33
2018-12-09T06:55:35.301Z,95378.98
2018-12-09T06:58:02.863Z,95393.09
2018-12-09T07:00:30.615Z,95382.37
2018-12-09T07:02:58.546Z,95381.30
2018-12-09T07:05:29.106Z,95390.25
2018-12-09T07:07:58.013Z,95384.38
2018-12-09T07:10:25.579Z,95389.27
2018-12-09T07:12:53.171Z,95401.45
2018-12-09T07:15:20.732Z,95402.27
2018-12-09T07:17:48.331Z,95405.76
2018-12-09T07:20:15.890Z,95414.70
2018-12-09T07:22:43.551Z,95419.01
2018-12-09T07:25:11.160Z,95426.61
2018-12-09T07:27:38.706Z,95413.52
2018-12-09T07:30:08.046Z,95438.06
2018-12-09T07:32:37.099Z,95424.41
2018-12-09T07:35:07.052Z,95402.73
2018-12-09T07:37:34.685Z,95424.70
2018-12-09T07:40:02.360Z,95455.33
2018-12-09T07:42:30.004Z,95449.19
2018-12-09T07:44:57.594Z,95461.65
2018-12-09T07:47:25.155Z,95494.88
2018-12-09T07:49:52.740Z,95471.06
2018-12-09T07:52:21.589Z,95470.36
2018-12-09T07:54:49.231Z,95475.72
2018-12-09T07:57:16.878Z,95487.29
2018-12-09T07:59:44.458Z,95495.28
2018-12-09T08:02:12.130Z,95496.13
2018-12-09T08:04:40.721Z,95504.09
2018-12-09T08:07:08.960Z,95522.05
2018-12-09T08:09:38.652Z,95537.42
2018-12-09T08:12:06.317Z,95527.22
2018-12-09T08:14:33.878Z,95533.64
2018-12-09T08:17:01.573Z,95556.64
2018-12-09T08:19:29.135Z,95538.50
2018-12-09T08:21:56.787Z,95538.21
2018-12-09T08:24:25.377Z,95536.14
2018-12-09T08:26:54.678Z,95544.52
2018-12-09T08:29:22.581Z,95537.09
2018-12-09T08:31:50.146Z,95536.83
2018-12-09T08:34:17.683Z,95562.16
2018-12-09T08:36:45.247Z,95551.88
2018-12-09T08:39:13.525Z,95551.59
2018-12-09T08:47:55.150Z,95579.67
2018-12-09T08:50:22.956Z,95570.97
2018-12-09T08:52:50.782Z,95580.20
2018-12-09T08:55:18.425Z,95577.12
2018-12-09T08:57:47.475Z,95574.55
2018-12-09T09:00:16.498Z,95580.94
2018-12-09T09:02:44.202Z,95572.73
2018-12-09T09:05:11.777Z,95578.14
2018-12-09T09:07:39.323Z,95581.97
2018-12-09T09:10:06.991Z,95586.30
2018-12-09T09:12:34.646Z,95598.06
2018-12-09T09:15:02.212Z,95589.90
2018-12-09T09:17:29.773Z,95583.80
2018-12-09T09:19:59.660Z,95577.65
2018-12-09T09:22:28.230Z,95580.41
2018-12-09T09:24:56.699Z,95572.00
2018-12-09T09:27:24.250Z,95582.77
2018-12-09T09:29:51.797Z,95575.10
2018-12-09T09:32:19.349Z,95599.97
2018-12-09T09:34:46.911Z,95570.61
2018-12-09T09:37:14.543Z,95575.97
2018-12-09T09:39:42.096Z,95570.37
2018-12-09T09:42:09.689Z,95583.94
2018-12-09T09:44:37.424Z,95587.02
2018-12-09T09:47:05.046Z,95590.89
2018-12-09T09:49:32.600Z,95586.06
2018-12-09T09:52:00.362Z,95589.94
2018-12-09T09:54:29.694Z,95584.61
2018-12-09T09:56:59.611Z,95593.58
2018-12-09T09:59:27.171Z,95587.45
2018-12-09T10:01:54.735Z,95593.32
2018-12-09T10:04:22.309Z,95592.30
2018-12-09T10:06:50.692Z,95586.94
2018-12-09T10:09:21.411Z,95585.66
2018-12-09T10:11:52.586Z,95588.47
2018-12-09T10:14:20.178Z,95592.06
2018-12-09T10:16:47.758Z,95586.16
2018-12-09T10:19:15.315Z,95589.48
2018-12-09T10:21:42.863Z,95584.62
2018-12-09T10:24:10.422Z,95586.17
2018-12-09T10:26:37.973Z,95581.08
2018-12-09T10:29:06.384Z,95577.48
2018-12-09T10:31:34.202Z,95573.94
2018-12-09T10:34:01.977Z,95562.70
2018-12-09T10:36:31.634Z,95565.52
2018-12-09T10:39:00.622Z,95570.63
2018-12-09T10:41:28.180Z,95570.11
2018-12-09T10:43:57.161Z,95570.62
2018-12-09T10:46:25.141Z,95570.36
2018-12-09T10:48:53.226Z,95566.55
2018-12-09T10:51:21.140Z,95579.78
2018-12-09T10:53:48.700Z,95568.83
2018-12-09T10:56:16.301Z,95586.42
2018-12-09T10:58:43.866Z,95570.88
2018-12-09T11:01:18.162Z,95572.40
2018-12-09T11:03:45.747Z,95568.83
2018-12-09T11:06:13.714Z,95566.52
2018-12-09T11:08:41.305Z,95585.67
2018-12-09T11:11:08.913Z,95577.51
2018-12-09T11:13:36.466Z,95584.38
2018-12-09T11:16:05.223Z,95581.06
2018-12-09T11:18:33.127Z,95592.81
2018-12-09T11:21:00.688Z,95602.01
2018-12-09T11:23:28.242Z,95581.59
2018-12-09T11:25:55.796Z,95574.69
2018-12-09T11:28:23.352Z,95577.75
2018-12-09T11:30:50.947Z,95573.42
2018-12-09T11:33:18.489Z,95574.19
2018-12-09T11:35:46.047Z,95581.06
2018-12-09T11:38:13.618Z,95577.00
2018-12-09T11:40:41.178Z,95567.81
2018-12-09T11:43:10.211Z,95569.86
2018-12-09T11:45:40.907Z,95568.81
2018-12-09T11:48:10.902Z,95564.76
2018-12-09T11:50:38.450Z,95563.98
2018-12-09T11:53:06.014Z,95561.19
2018-12-09T11:55:33.634Z,95590.02
2018-12-09T11:58:01.187Z,95568.08
2018-12-09T12:00:31.596Z,95565.75
2018-12-09T12:03:01.168Z,95567.03
2018-12-09T12:05:28.730Z,95560.41
2018-12-09T12:07:56.318Z,95554.55
2018-12-09T12:10:23.872Z,95548.92
2018-12-09T12:12:51.469Z,95549.70
2018-12-09T12:15:19.028Z,95542.31
2018-12-09T12:17:46.762Z,95554.29
2018-12-09T12:20:15.394Z,95562.19
2018-12-09T12:22:45.096Z,95556.59
2018-12-09T12:25:13.158Z,95550.73
2018-12-09T12:27:40.722Z,95550.98
2018-12-09T12:30:08.398Z,95546.12
2018-12-09T12:32:35.970Z,95541.53
2018-12-09T12:35:04.110Z,95545.63
2018-12-09T12:37:31.766Z,95537.97
2018-12-09T12:39:59.327Z,95583.10
2018-12-09T12:42:26.883Z,95554.05
2018-12-09T12:44:55.497Z,95530.33
2018-12-09T12:47:24.655Z,95540.00
2018-12-09T12:49:53.621Z,95553.28
2018-12-09T12:52:21.178Z,95541.27
2018-12-09T12:54:48.726Z,95555.56
2018-12-09T12:57:18.669Z,95544.09
2018-12-09T12:59:48.105Z,95538.47
2018-12-09T13:02:16.260Z,95540.27
2018-12-09T13:04:43.830Z,95540.78
2018-12-09T13:07:11.393Z,95534.38
2018-12-09T13:09:38.961Z,95530.07
2018-12-09T13:12:06.502Z,95538.23
2018-12-09T13:14:34.052Z,95545.38
2018-12-09T13:17:01.602Z,95538.73
2018-12-09T13:19:29.258Z,95541.03
2018-12-09T13:21:56.936Z,95516.02
2018-12-09T13:24:24.511Z,95529.28
2018-12-09T13:26:52.330Z,95537.96
2018-12-09T13:29:19.946Z,95534.14
2018-12-09T13:31:47.523Z,95534.88
2018-12-09T13:34:15.080Z,95536.69
2018-12-09T13:36:43.585Z,95545.09
2018-12-09T13:39:13.079Z,95555.30
2018-12-09T13:41:40.633Z,95546.89
2018-12-09T13:44:08.201Z,95547.64
2018-12-09T13:46:35.747Z,95557.61
2018-12-09T13:49:03.325Z,95561.95
2018-12-09T13:51:30.878Z,95564.23
2018-12-09T13:53:59.722Z,95557.61
2018-12-09T13:56:27.299Z,95565.27
2018-12-09T13:58:56.822Z,95566.77
2018-12-09T14:01:24.478Z,95569.34
2018-12-09T14:03:52.036Z,95566.80
2018-12-09T14:06:21.260Z,95584.13
2018-12-09T14:08:49.593Z,95573.66
2018-12-09T14:11:17.296Z,95573.67
2018-12-09T14:13:44.841Z,95575.96
2018-12-09T14:16:12.523Z,95564.23
2018-12-09T14:18:40.290Z,95557.62
2018-12-09T14:21:07.850Z,95567.81
2018-12-09T14:23:35.567Z,95573.16
2018-12-09T14:26:03.347Z,95584.89
2018-12-09T14:28:31.014Z,95598.14
2018-12-09T14:30:58.696Z,95593.04
2018-12-09T14:33:27.586Z,95605.56
2018-12-09T14:35:55.389Z,95608.61
2018-12-09T14:38:23.150Z,95610.14
2018-12-09T14:40:50.706Z,95609.88
2018-12-09T14:43:18.252Z,95608.34
2018-12-09T14:45:48.881Z,95602.73
2018-12-09T14:48:15.527Z,95604.03
2018-12-09T14:50:43.238Z,95616.76
2018-12-09T14:53:11.140Z,95609.88
2018-12-09T14:55:38.717Z,95618.55
2018-12-09T14:58:06.306Z,95608.36
2018-12-09T15:00:33.899Z,95612.68
2018-12-09T15:03:01.457Z,95623.13
2018-12-09T15:05:29.019Z,95612.17
2018-12-09T15:07:56.565Z,95623.65
2018-12-09T15:10:24.122Z,95628.24
2018-12-09T15:12:51.710Z,95625.94
2018-12-09T15:15:19.275Z,95630.29
2018-12-09T15:17:46.832Z,95630.29
2018-12-09T15:20:15.298Z,95633.11
2018-12-09T15:22:42.934Z,95630.80
2018-12-09T15:25:10.629Z,95635.91
2018-12-09T15:27:38.195Z,95638.20
2018-12-09T15:30:06.784Z,95637.70
2018-12-09T15:32:34.441Z,95642.55
2018-12-09T15:35:01.997Z,95651.48
2018-12-09T15:37:29.571Z,95644.31
2018-12-09T15:39:57.150Z,95658.36
2018-12-09T15:42:24.899Z,95648.16
2018-12-09T15:44:52.523Z,95661.66
2018-12-09T15:47:21.164Z,95660.89
2018-12-09T15:49:48.890Z,95658.85
2018-12-09T15:52:16.443Z,95665.23
2018-12-09T15:54:44.147Z,95665.22
2018-12-09T15:57:11.751Z,95669.30
2018-12-09T15:59:39.322Z,95665.22
2018-12-09T16:02:06.899Z,95664.95
2018-12-09T16:04:34.486Z,95673.13
2018-12-09T16:07:02.243Z,95688.93
2018-12-09T16:09:29.800Z,95674.16
2018-12-09T16:11:57.840Z,95699.40
2018-12-09T16:14:25.606Z,95702.25
2018-12-09T16:16:53.168Z,95697.64
2018-12-09T16:19:21.860Z,95716.25
2018-12-09T16:21:49.526Z,95727.74
2018-12-09T16:24:18.017Z,95720.84
2018-12-09T16:26:46.115Z,95721.88
2018-12-09T16:29:13.828Z,95718.30
2018-12-09T16:31:41.387Z,95738.71
2018-12-09T16:34:09.017Z,95737.44
2018-12-09T16:36:37.358Z,95735.91
2018-12-09T16:39:06.345Z,95741.52
2018-12-09T16:41:35.267Z,95747.87
2018-12-09T16:44:02.961Z,95743.83
2018-12-09T16:46:30.513Z,95754.53
2018-12-09T16:48:58.068Z,95751.96
2018-12-09T16:51:25.623Z,95754.00
2018-12-09T16:53:53.170Z,95767.01
2018-12-09T16:56:20.718Z,95769.85
2018-12-09T16:58:48.281Z,95773.68
2018-12-09T17:01:15.848Z,95760.16
2018-12-09T17:03:44.497Z,95780.83
2018-12-09T17:06:12.143Z,95778.05
2018-12-09T17:08:39.697Z,95788.77
2018-12-09T17:11:07.262Z,95788.77
2018-12-09T17:13:34.822Z,95795.92
2018-12-09T17:16:02.372Z,95798.26
2018-12-09T17:18:30.057Z,95807.16
2018-12-09T17:20:57.632Z,95808.20
2018-12-09T17:23:26.557Z,95821.73
2018-12-09T17:25:55.743Z,95830.69
2018-12-09T17:28:23.443Z,95834.03
2018-12-09T17:30:51.104Z,95832.51
2018-12-09T17:33:18.665Z,95839.91
2018-12-09T17:35:47.403Z,95858.06
2018-12-09T17:38:15.049Z,95853.73
2018-12-09T17:40:42.669Z,95866.54
2018-12-09T17:43:10.333Z,95857.83
2018-12-09T17:45:37.894Z,95863.44
2018-12-09T17:48:05.554Z,95873.14
2018-12-09T17:50:33.114Z,95867.80
2018-12-09T17:53:02.108Z,95874.20
2018-12-09T17:55:31.443Z,95875.73
2018-12-09T17:57:59.331Z,95883.62
2018-12-09T18:00:26.935Z,95881.33
2018-12-09T18:02:54.488Z,95892.81
2018-12-09T18:05:22.125Z,95906.10
2018-12-09T18:07:49.700Z,95895.63
2018-12-09T18:10:17.255Z,95915.30
2018-12-09T18:12:48.169Z,95916.33
2018-12-09T18:15:14.917Z,95912.74
2018-12-09T18:17:43.424Z,95926.02
2018-12-09T18:20:11.231Z,95932.93
2018-12-09T18:22:38.839Z,95937.78
2018-12-09T18:25:06.509Z,95943.94
2018-12-09T18:27:34.090Z,95950.58
2018-12-09T18:30:01.644Z,95953.89
2018-12-09T18:32:29.231Z,95959.50
2018-12-09T18:34:56.894Z,95965.38
2018-12-09T18:37:25.423Z,95968.97
2018-12-09T18:39:53.245Z,95972.02
2018-12-09T18:42:20.922Z,95974.33
2018-12-09T18:44:48.525Z,95982.97
2018-12-09T18:47:16.083Z,95991.95
2018-12-09T18:49:43.638Z,95985.31
2018-12-09T18:52:11.238Z,95989.42
2018-12-09T18:54:38.942Z,96001.40
2018-12-09T18:57:07.353Z,96010.60
2018-12-09T18:59:35.122Z,96009.31
2018-12-09T19:02:03.590Z,96024.38
2018-12-09T19:04:31.225Z,96019.52
2018-12-09T19:07:01.286Z,96034.38
2018-12-09T19:09:28.973Z,96032.05
2018-12-09T19:11:56.531Z,96051.98
2018-12-09T19:14:24.137Z,96047.41
2018-12-09T19:16:52.008Z,96064.77
2018-12-09T19:19:19.563Z,96054.80
2018-12-09T19:21:47.110Z,96063.23
2018-12-09T19:24:14.817Z,96064.77
2018-12-09T19:26:42.403Z,96077.52
2018-12-09T19:29:09.955Z,96085.19
2018-12-09T19:31:37.514Z,96085.17
2018-12-09T19:34:05.070Z,96096.19
2018-12-09T19:36:32.754Z,96098.72
2018-12-09T19:39:01.800Z,96103.55
2018-12-09T19:41:29.481Z,96117.86
2018-12-09T19:43:57.121Z,96126.88
2018-12-09T19:46:24.737Z,96140.13
2018-12-09T19:48:52.609Z,96150.06
2018-12-09T19:51:20.150Z,96153.04
2018-12-09T19:53:47.707Z,96163.23
2018-12-09T19:56:15.273Z,96163.23
2018-12-09T19:58:42.826Z,96171.18
2018-12-09T20:01:10.375Z,96165.78
2018-12-09T20:03:38.122Z,96173.97
2018-12-09T20:06:05.665Z,96179.31
2018-12-09T20:08:33.213Z,96187.95
2018-12-09T20:11:00.778Z,96196.17
2018-12-09T20:13:29.551Z,96197.94
2018-12-09T20:15:57.425Z,96206.58
2018-12-09T20:18:24.982Z,96211.78
2018-12-09T20:20:52.546Z,96210.47
2018-12-09T20:23:20.109Z,96214.33
2018-12-09T20:28:17.401Z,96230.87
2018-12-09T20:30:44.971Z,96235.91
2018-12-09T20:33:12.543Z,96230.28
2018-12-09T20:35:40.674Z,96246.39
2018-12-09T20:38:08.229Z,96244.59
2018-12-09T20:40:36.484Z,96248.71
2018-12-09T20:43:04.131Z,96253.30
2018-12-09T20:45:32.610Z,96271.95
2018-12-09T20:48:00.302Z,96267.23
2018-12-09T20:50:27.865Z,96270.54
2018-12-09T20:52:56.066Z,96274.27
2018-12-09T20:55:23.744Z,96272.61
2018-12-09T20:57:51.707Z,96283.20
2018-12-09T21:00:19.432Z,96272.99
2018-12-09T21:02:46.994Z,96271.03
2018-12-09T21:05:14.548Z,96279.90
2018-12-09T21:07:42.120Z,96274.86
2018-12-09T21:10:10.189Z,96277.88
2018-12-09T21:12:37.810Z,96278.32
2018-12-09T21:15:05.891Z,96289.81
2018-12-09T21:17:33.464Z,96291.83
2018-12-09T21:20:01.900Z,96291.38
2018-12-09T21:22:29.466Z,96298.97
2018-12-09T21:24:57.030Z,96299.38
2018-12-09T21:27:24.597Z,96302.72
2018-12-09T21:29:52.163Z,96304.95
2018-12-09T21:32:19.738Z,96322.00
2018-12-09T21:34:47.835Z,96323.84
2018-12-09T21:37:15.416Z,96322.56
2018-12-09T21:39:43.101Z,96327.89
2018-12-09T21:42:10.675Z,96326.65
2018-12-09T21:44:38.245Z,96332.05
2018-12-09T21:47:05.948Z,96342.98
2018-12-09T21:49:33.557Z,96345.52
2018-12-09T21:52:01.857Z,96357.01
2018-12-09T21:54:29.438Z,96357.27
2018-12-09T21:56:56.991Z,96360.48
2018-12-09T21:59:24.570Z,96362.20
2018-12-09T22:01:53.509Z,96374.16
2018-12-09T22:04:21.099Z,96369.02
2018-12-09T22:06:49.221Z,96378.66
2018-12-09T22:09:16.887Z,96370.30
2018-12-09T22:11:44.882Z,96378.30
2018-12-09T22:14:12.443Z,96382.30
2018-12-09T22:16:40.730Z,96394.61
2018-12-09T22:19:08.359Z,96397.70
2018-12-09T22:21:35.910Z,96405.84
2018-12-09T22:24:04.743Z,96404.08
2018-12-09T22:26:32.455Z,96414.45
2018-12-09T22:29:00.252Z,96413.77
2018-12-09T22:31:28.756Z,96416.44
2018-12-09T22:33:56.376Z,96422.86
2018-12-09T22:36:24.929Z,96430.89
2018-12-09T22:38:52.475Z,96439.64
2018-12-09T22:41:20.052Z,96431.89
2018-12-09T22:43:47.618Z,96435.46
2018-12-09T22:46:15.886Z,96438.33
2018-12-09T22:48:43.498Z,96439.13
2018-12-09T22:51:11.468Z,96448.32
2018-12-09T22:53:39.038Z,96445.55
2018-12-09T22:56:06.586Z,96447.68
2018-12-09T22:58:34.196Z,96450.77
2018-12-09T23:01:07.457Z,96455.33
2018-12-09T23:03:35.830Z,96466.70
2018-12-09T23:06:03.566Z,96463.30
2018-12-09T23:08:31.136Z,96467.34
2018-12-09T23:13:54.278Z,96470.48
2018-12-09T23:16:21.839Z,96472.92
2018-12-09T23:18:49.415Z,96486.48
2018-12-09T23:21:16.962Z,96483.66
2018-12-09T23:23:44.525Z,96493.59
2018-12-09T23:26:12.395Z,96500.08
2018-12-09T23:28:42.681Z,96501.78
2018-12-09T23:31:11.985Z,96495.80
2018-12-09T23:33:39.538Z,96498.38
2018-12-09T23:36:07.094Z,96504.91
2018-12-09T23:38:34.648Z,96501.17
2018-12-09T23:41:02.197Z,96515.00
2018-12-09T23:43:29.755Z,96519.84
2018-12-09T23:45:57.302Z,96521.31
2018-12-09T23:48:25.037Z,96540.46
2018-12-09T23:50:52.581Z,96537.38
2018-12-09T23:53:20.132Z,96559.56
2018-12-09T23:55:47.685Z,96555.05
2018-12-09T23:58:15.225Z,96563.57
